Time;durP1;ratioP1;P1;durP2;ratioP2;P2;SDS_P1;SDS_P2;PMS_P1;PMS_P2;Temp;Humidity;BMP_temperature;BMP_pressure;BME280_temperature;BME280_humidity;BME280_pressure;Samples;Min_cycle;Max_cycle;Signal;HPM_P1;HPM_P2
2023/06/18 00:00:55;;;;;;;20.92;15.50;;;22.00;99.90;;;;;;4952429;28;20023;-72
2023/06/18 00:03:20;;;;;;;18.33;14.65;;;21.90;99.90;;;;;;4953347;29;20106;-72
2023/06/18 00:05:46;;;;;;;19.17;14.73;;;21.90;99.90;;;;;;4955678;28;20473;-71
2023/06/18 00:08:11;;;;;;;17.60;13.93;;;21.90;99.90;;;;;;4955926;28;20027;-72
2023/06/18 00:10:37;;;;;;;20.88;14.20;;;21.80;99.90;;;;;;4944529;28;20352;-71
2023/06/18 00:13:04;;;;;;;21.77;14.43;;;21.80;99.90;;;;;;4955803;28;20106;-72
2023/06/18 00:15:29;;;;;;;22.25;15.00;;;21.80;99.90;;;;;;4951919;28;20024;-72
2023/06/18 00:17:55;;;;;;;19.45;16.17;;;21.80;99.90;;;;;;4947251;29;20030;-72
2023/06/18 00:20:21;;;;;;;19.15;14.30;;;21.70;99.90;;;;;;4953894;28;20394;-72
2023/06/18 00:22:48;;;;;;;21.63;15.98;;;21.70;99.90;;;;;;4955804;28;20043;-71
2023/06/18 00:25:14;;;;;;;21.65;14.95;;;21.70;99.90;;;;;;4943072;28;20030;-71
2023/06/18 00:27:40;;;;;;;17.50;13.90;;;21.70;99.90;;;;;;4955642;28;20031;-71
2023/06/18 00:30:07;;;;;;;20.50;13.98;;;21.70;99.90;;;;;;4940656;28;20466;-71
2023/06/18 00:32:32;;;;;;;17.52;13.23;;;21.70;99.90;;;;;;4955418;28;20049;-72
2023/06/18 00:35:00;;;;;;;17.48;13.32;;;21.60;99.90;;;;;;4955369;28;20019;-71
2023/06/18 00:37:27;;;;;;;15.50;11.50;;;21.60;99.90;;;;;;4946484;28;20106;-71
2023/06/18 00:39:54;;;;;;;15.15;11.90;;;21.60;99.90;;;;;;4951856;29;20023;-72
2023/06/18 00:42:20;;;;;;;16.45;12.07;;;21.60;99.90;;;;;;4962338;28;20391;-71
2023/06/18 00:44:46;;;;;;;16.92;10.45;;;21.50;99.90;;;;;;4948280;29;20027;-72
2023/06/18 00:47:12;;;;;;;13.63;11.07;;;21.50;99.90;;;;;;4954060;28;20026;-71
2023/06/18 00:49:40;;;;;;;14.48;11.15;;;21.50;99.90;;;;;;4949808;28;20367;-72
2023/06/18 00:52:08;;;;;;;14.05;10.85;;;21.50;99.90;;;;;;4955096;28;20078;-71
2023/06/18 00:54:35;;;;;;;15.77;11.13;;;21.40;99.90;;;;;;4939281;28;20027;-71
2023/06/18 00:57:03;;;;;;;16.48;10.60;;;21.40;99.90;;;;;;4951442;29;20023;-71
2023/06/18 00:59:29;;;;;;;13.45;10.25;;;21.40;99.90;;;;;;4955127;28;20078;-72
2023/06/18 01:01:56;;;;;;;14.85;11.07;;;21.40;99.90;;;;;;4954782;28;20643;-72
2023/06/18 01:04:27;;;;;;;14.32;10.75;;;21.40;99.90;;;;;;4953013;28;20035;-72
2023/06/18 01:06:54;;;;;;;17.20;13.02;;;21.30;99.90;;;;;;4953918;28;20027;-72
2023/06/18 01:09:25;;;;;;;20.10;13.23;;;21.30;99.90;;;;;;4954083;29;20038;-72
2023/06/18 01:11:52;;;;;;;21.13;15.65;;;21.30;99.90;;;;;;4954527;28;20047;-72
2023/06/18 01:14:22;;;;;;;17.05;12.30;;;21.30;99.90;;;;;;4954504;28;20035;-72
2023/06/18 01:16:51;;;;;;;16.55;11.93;;;21.20;99.90;;;;;;4954622;28;20023;-72
2023/06/18 01:19:47;;;;;;;17.23;11.50;;;21.20;99.90;;;;;;4954629;28;20015;-71
2023/06/18 01:22:26;;;;;;;;;;;21.20;99.90;;;;;;4957494;28;20070;-72
2023/06/18 01:25:02;;;;;;;15.80;10.20;;;21.10;99.90;;;;;;4954591;28;19906;-72
2023/06/18 01:27:33;;;;;;;14.43;9.75;;;21.10;99.90;;;;;;4954646;28;20023;-72
2023/06/18 01:30:00;;;;;;;12.90;10.00;;;21.00;99.90;;;;;;4954563;28;20074;-72
2023/06/18 01:32:26;;;;;;;12.90;9.38;;;21.00;99.90;;;;;;4954433;28;20050;-72
2023/06/18 01:34:56;;;;;;;12.48;9.38;;;21.00;99.90;;;;;;4940999;28;20011;-72
2023/06/18 01:38:01;;;;;;;12.52;8.90;;;20.90;99.90;;;;;;4952677;28;20032;-71
2023/06/18 01:40:52;;;;;;;15.87;9.87;;;20.90;99.90;;;;;;4949036;29;20406;-72
2023/06/18 01:43:30;;;;;;;10.00;8.88;;;20.90;99.90;;;;;;4953885;28;20050;-72
2023/06/18 01:46:02;;;;;;;14.70;8.90;;;20.90;99.90;;;;;;4953989;28;20034;-72
2023/06/18 01:48:31;;;;;;;11.95;9.18;;;20.80;99.90;;;;;;4948758;29;20031;-72
2023/06/18 01:50:57;;;;;;;13.32;9.68;;;20.80;99.90;;;;;;4953456;28;20434;-72
2023/06/18 01:53:25;;;;;;;12.70;8.93;;;20.80;99.90;;;;;;4952327;28;20030;-72
2023/06/18 01:55:56;;;;;;;14.45;9.57;;;20.80;99.90;;;;;;4947308;28;20663;-71
2023/06/18 01:58:22;;;;;;;15.75;9.50;;;20.80;99.90;;;;;;4953552;29;20367;-72
2023/06/18 02:00:48;;;;;;;11.25;9.27;;;20.70;99.90;;;;;;4953764;28;20050;-72
2023/06/18 02:03:14;;;;;;;15.85;9.43;;;20.70;99.90;;;;;;4953680;28;20038;-72
2023/06/18 02:05:40;;;;;;;13.20;8.82;;;20.70;99.90;;;;;;4946241;28;20020;-72
2023/06/18 02:08:05;;;;;;;15.10;9.60;;;20.60;99.90;;;;;;4953970;28;20175;-72
2023/06/18 02:10:31;;;;;;;11.40;8.85;;;20.60;99.90;;;;;;4953670;28;20059;-72
2023/06/18 02:12:57;;;;;;;11.80;9.13;;;20.60;99.90;;;;;;4953839;28;20038;-71
2023/06/18 02:15:22;;;;;;;12.05;8.55;;;20.60;99.90;;;;;;4953214;28;20024;-71
2023/06/18 02:17:48;;;;;;;15.48;9.15;;;20.50;99.90;;;;;;4953125;28;20086;-72
2023/06/18 02:20:14;;;;;;;15.57;10.02;;;20.50;99.90;;;;;;4953532;28;20511;-72
2023/06/18 02:22:39;;;;;;;16.10;8.88;;;20.50;99.90;;;;;;4953499;28;20031;-71
2023/06/18 02:25:06;;;;;;;11.90;8.70;;;20.50;99.90;;;;;;4953264;28;20022;-72
2023/06/18 02:27:32;;;;;;;13.93;9.20;;;20.50;99.90;;;;;;4953459;28;20498;-72
2023/06/18 02:30:01;;;;;;;14.45;9.55;;;20.50;99.90;;;;;;4950678;28;20079;-72
2023/06/18 02:32:28;;;;;;;15.20;9.80;;;20.40;99.90;;;;;;4953402;28;20027;-72
2023/06/18 02:34:54;;;;;;;13.68;9.75;;;20.40;99.90;;;;;;4953530;28;20094;-71
2023/06/18 02:37:20;;;;;;;11.98;9.23;;;20.40;99.90;;;;;;4953587;28;20047;-71
2023/06/18 02:39:46;;;;;;;14.02;9.90;;;20.40;99.90;;;;;;4948529;28;20039;-71
2023/06/18 02:42:12;;;;;;;11.70;9.40;;;20.40;99.90;;;;;;4949054;29;20039;-72
2023/06/18 02:44:42;;;;;;;13.63;9.77;;;20.40;99.90;;;;;;4953085;28;20034;-71
2023/06/18 02:47:08;;;;;;;14.18;9.75;;;20.40;99.90;;;;;;4953149;28;20027;-72
2023/06/18 02:49:34;;;;;;;15.43;9.95;;;20.40;99.90;;;;;;4952746;28;20492;-72
2023/06/18 02:51:59;;;;;;;14.90;10.15;;;20.30;99.90;;;;;;4943271;28;20032;-71
2023/06/18 02:54:25;;;;;;;15.43;9.80;;;20.30;99.90;;;;;;4938255;29;20026;-71
2023/06/18 02:56:51;;;;;;;13.38;9.85;;;20.30;99.90;;;;;;4953144;28;20042;-71
2023/06/18 02:59:17;;;;;;;14.07;9.75;;;20.30;99.90;;;;;;4953050;28;20027;-71
2023/06/18 03:01:44;;;;;;;13.73;8.95;;;20.30;99.90;;;;;;4953456;28;20027;-71
2023/06/18 03:04:11;;;;;;;18.13;10.45;;;20.30;99.90;;;;;;4953128;28;20058;-71
2023/06/18 03:06:37;;;;;;;17.65;10.20;;;20.30;99.90;;;;;;4953069;28;20034;-71
2023/06/18 03:09:03;;;;;;;19.40;10.02;;;20.30;99.90;;;;;;4953101;28;20022;-72
2023/06/18 03:11:30;;;;;;;14.82;10.35;;;20.20;99.90;;;;;;4952961;28;20019;-71
2023/06/18 03:13:55;;;;;;;13.10;10.00;;;20.20;99.90;;;;;;4953069;28;20034;-71
2023/06/18 03:16:23;;;;;;;15.45;10.55;;;20.20;99.90;;;;;;4951616;28;20737;-71
2023/06/18 03:18:49;;;;;;;14.10;10.07;;;20.20;99.90;;;;;;4952558;28;20485;-71
2023/06/18 03:21:15;;;;;;;17.05;10.50;;;20.10;99.90;;;;;;4953172;28;20043;-71
2023/06/18 03:23:43;;;;;;;14.52;10.10;;;20.10;99.90;;;;;;4952853;28;20024;-72
2023/06/18 03:26:09;;;;;;;15.30;10.65;;;20.10;99.90;;;;;;4952982;28;20515;-72
2023/06/18 03:28:35;;;;;;;12.88;10.23;;;20.00;99.90;;;;;;4955325;28;20107;-71
2023/06/18 03:31:02;;;;;;;18.65;10.32;;;20.00;99.90;;;;;;4956367;28;20074;-72
2023/06/18 03:33:29;;;;;;;17.75;10.82;;;20.00;99.90;;;;;;4956181;28;20024;-71
2023/06/18 03:36:00;;;;;;;15.50;10.57;;;20.00;99.90;;;;;;4956530;28;20016;-71
2023/06/18 03:38:27;;;;;;;15.52;10.80;;;20.00;99.90;;;;;;4956441;28;20111;-72
2023/06/18 03:40:52;;;;;;;15.05;10.95;;;19.90;99.90;;;;;;4956236;28;20053;-72
2023/06/18 03:43:18;;;;;;;19.15;11.40;;;19.90;99.90;;;;;;4951256;28;20052;-72
2023/06/18 03:45:44;;;;;;;17.67;12.55;;;19.90;99.90;;;;;;4949851;28;20031;-71
2023/06/18 03:48:10;;;;;;;14.55;11.70;;;19.90;99.90;;;;;;4956046;28;20081;-71
2023/06/18 03:50:35;;;;;;;17.98;12.82;;;19.90;99.90;;;;;;4956154;28;20031;-71
2023/06/18 03:53:01;;;;;;;16.58;12.60;;;19.90;99.90;;;;;;4956090;28;20024;-71
2023/06/18 03:55:26;;;;;;;16.20;10.95;;;19.90;99.90;;;;;;4955993;28;20031;-72
2023/06/18 03:57:52;;;;;;;16.63;11.82;;;19.90;99.90;;;;;;4955965;28;20027;-72
2023/06/18 04:00:18;;;;;;;21.40;12.00;;;19.90;99.90;;;;;;4955778;28;20548;-72
2023/06/18 04:02:43;;;;;;;14.25;11.20;;;19.90;99.90;;;;;;4955762;28;20611;-71
2023/06/18 04:05:10;;;;;;;18.08;11.73;;;19.90;99.90;;;;;;4955761;28;20106;-71
2023/06/18 04:07:36;;;;;;;17.98;12.23;;;19.90;99.90;;;;;;4951931;28;20022;-71
2023/06/18 04:10:02;;;;;;;19.50;11.57;;;19.90;99.90;;;;;;4955710;28;20118;-71
2023/06/18 04:12:28;;;;;;;17.67;12.20;;;19.90;99.90;;;;;;4955679;28;20027;-71
2023/06/18 04:14:54;;;;;;;19.42;12.43;;;19.90;99.90;;;;;;4955557;28;20560;-71
2023/06/18 04:17:19;;;;;;;15.93;12.52;;;19.90;99.90;;;;;;4955781;28;20050;-71
2023/06/18 04:19:45;;;;;;;16.70;11.85;;;19.90;99.90;;;;;;4952168;28;20055;-72
2023/06/18 04:22:10;;;;;;;16.95;11.82;;;20.00;99.90;;;;;;4970297;28;20045;-71
2023/06/18 04:24:36;;;;;;;100.45;13.45;;;20.00;99.90;;;;;;4955264;28;20027;-71
2023/06/18 04:27:01;;;;;;;20.20;11.20;;;20.00;99.90;;;;;;4952101;28;20027;-71
2023/06/18 04:29:27;;;;;;;31.23;12.13;;;20.00;99.90;;;;;;4951355;28;20222;-71
2023/06/18 04:31:53;;;;;;;26.65;10.82;;;20.00;99.90;;;;;;4948335;29;20027;-71
2023/06/18 04:34:18;;;;;;;30.33;10.60;;;20.00;99.90;;;;;;4945028;28;20415;-71
2023/06/18 04:36:44;;;;;;;55.70;13.25;;;20.00;99.90;;;;;;4948727;29;20080;-71
2023/06/18 04:39:10;;;;;;;41.38;12.73;;;20.00;99.90;;;;;;4942890;28;20031;-72
2023/06/18 04:41:36;;;;;;;17.60;12.68;;;20.00;99.90;;;;;;4955021;28;20447;-72
2023/06/18 04:44:01;;;;;;;21.60;12.90;;;20.10;99.90;;;;;;4955193;28;20027;-72
2023/06/18 04:46:27;;;;;;;17.35;12.02;;;20.10;99.90;;;;;;4953343;28;20070;-72
2023/06/18 04:48:52;;;;;;;19.40;13.20;;;20.20;99.90;;;;;;4952591;29;20046;-72
2023/06/18 04:51:18;;;;;;;20.17;12.48;;;20.20;99.90;;;;;;4954787;28;20470;-72
2023/06/18 04:53:44;;;;;;;20.10;14.10;;;20.20;99.90;;;;;;4953520;28;20023;-72
2023/06/18 04:56:10;;;;;;;20.33;13.40;;;20.30;99.90;;;;;;4953336;29;20047;-72
2023/06/18 04:58:39;;;;;;;22.42;13.75;;;20.40;99.90;;;;;;4955017;28;20019;-72
2023/06/18 05:01:04;;;;;;;22.48;13.48;;;20.50;99.90;;;;;;4951122;28;20082;-72
2023/06/18 05:03:30;;;;;;;20.13;13.27;;;20.60;99.90;;;;;;4945878;28;20027;-72
2023/06/18 05:05:56;;;;;;;22.50;13.88;;;20.60;99.90;;;;;;4954772;28;20525;-72
2023/06/18 05:08:22;;;;;;;26.98;12.25;;;20.70;99.90;;;;;;4936889;28;20530;-72
2023/06/18 05:10:49;;;;;;;21.92;12.27;;;20.80;99.90;;;;;;4949476;29;20082;-72
2023/06/18 05:13:15;;;;;;;28.92;13.05;;;20.90;99.90;;;;;;4954024;28;20477;-72
2023/06/18 05:15:40;;;;;;;26.70;12.98;;;20.90;99.90;;;;;;4954532;28;20019;-72
2023/06/18 05:18:06;;;;;;;50.60;14.80;;;21.00;99.90;;;;;;4948560;28;20024;-72
2023/06/18 05:20:31;;;;;;;34.95;14.90;;;21.10;99.90;;;;;;4947941;28;20194;-72
2023/06/18 05:22:57;;;;;;;25.98;15.13;;;21.10;99.90;;;;;;4954503;28;20027;-72
2023/06/18 05:25:22;;;;;;;21.98;14.50;;;21.10;99.90;;;;;;4954288;28;20027;-72
2023/06/18 05:27:48;;;;;;;26.58;14.85;;;21.20;99.90;;;;;;4954466;28;20055;-72
2023/06/18 05:30:14;;;;;;;22.70;15.63;;;21.20;99.90;;;;;;4954262;28;20031;-72
2023/06/18 05:32:40;;;;;;;23.40;14.52;;;21.30;99.90;;;;;;4949706;29;20087;-72
2023/06/18 05:35:05;;;;;;;23.48;14.57;;;21.30;99.90;;;;;;4950611;29;20028;-72
2023/06/18 05:37:31;;;;;;;21.33;14.50;;;21.30;99.90;;;;;;4954385;28;20020;-72
2023/06/18 05:39:57;;;;;;;23.33;15.05;;;21.40;99.90;;;;;;4954013;28;20653;-72
2023/06/18 05:42:22;;;;;;;21.15;14.32;;;21.40;99.90;;;;;;4944950;29;20055;-72
2023/06/18 05:44:48;;;;;;;21.05;14.68;;;21.50;99.90;;;;;;4948431;28;20111;-72
2023/06/18 05:47:13;;;;;;;24.77;14.93;;;21.40;99.90;;;;;;4951828;29;20756;-72
2023/06/18 05:49:39;;;;;;;19.50;14.80;;;21.50;99.90;;;;;;4953574;28;20128;-72
2023/06/18 05:52:05;;;;;;;18.15;13.27;;;21.50;99.90;;;;;;4953572;28;20015;-72
2023/06/18 05:54:31;;;;;;;22.08;13.65;;;21.40;99.90;;;;;;4941829;28;20030;-72
2023/06/18 05:56:57;;;;;;;21.67;14.02;;;21.50;99.90;;;;;;4941890;28;20024;-72
2023/06/18 05:59:22;;;;;;;19.30;14.10;;;21.50;99.90;;;;;;4952085;29;20419;-72
2023/06/18 06:01:48;;;;;;;21.08;13.50;;;21.50;99.90;;;;;;4954044;28;20023;-72
2023/06/18 06:04:14;;;;;;;22.73;14.77;;;21.50;99.90;;;;;;4952509;28;20069;-72
2023/06/18 06:06:39;;;;;;;18.42;13.68;;;21.50;99.90;;;;;;4953348;28;20015;-72
2023/06/18 06:09:05;;;;;;;17.17;12.45;;;21.60;99.90;;;;;;4940971;28;20364;-72
2023/06/18 06:11:36;;;;;;;22.35;12.00;;;21.60;99.90;;;;;;4942328;28;20024;-72
2023/06/18 06:14:02;;;;;;;16.67;11.55;;;21.70;99.90;;;;;;4947233;29;20035;-72
2023/06/18 06:16:28;;;;;;;18.45;12.13;;;21.70;99.90;;;;;;4944955;28;20028;-72
2023/06/18 06:18:53;;;;;;;16.17;11.68;;;21.80;99.90;;;;;;4950413;29;20359;-72
2023/06/18 06:21:20;;;;;;;21.42;11.55;;;21.90;99.90;;;;;;4949643;28;20027;-72
2023/06/18 06:23:45;;;;;;;19.23;11.52;;;21.90;99.90;;;;;;4955888;28;20031;-72
2023/06/18 06:26:12;;;;;;;15.50;10.50;;;21.90;99.90;;;;;;4947716;28;20086;-72
2023/06/18 06:28:37;;;;;;;14.23;10.27;;;22.00;99.90;;;;;;4947996;28;20023;-72
2023/06/18 06:31:03;;;;;;;17.30;10.38;;;22.10;99.80;;;;;;4939963;28;20098;-72
2023/06/18 06:33:29;;;;;;;17.17;10.32;;;22.10;98.80;;;;;;4950119;29;20023;-72
2023/06/18 06:35:55;;;;;;;15.82;10.18;;;22.20;98.00;;;;;;4950093;28;20069;-72
2023/06/18 06:38:20;;;;;;;14.85;10.27;;;22.30;97.20;;;;;;4952808;28;20023;-72
2023/06/18 06:40:46;;;;;;;14.10;9.63;;;22.40;96.70;;;;;;4951578;28;20034;-72
2023/06/18 06:43:12;;;;;;;12.95;9.90;;;22.40;95.80;;;;;;4952914;28;20055;-72
2023/06/18 06:45:37;;;;;;;13.52;9.85;;;22.40;95.30;;;;;;4952714;28;20031;-72
2023/06/18 06:48:03;;;;;;;14.48;9.10;;;22.50;94.70;;;;;;4943984;28;20031;-72
2023/06/18 06:50:28;;;;;;;17.20;10.23;;;22.60;94.30;;;;;;4948989;29;20322;-72
2023/06/18 06:52:54;;;;;;;13.63;10.20;;;22.60;94.00;;;;;;4950149;28;20098;-72
2023/06/18 06:55:20;;;;;;;13.00;10.60;;;22.70;93.50;;;;;;4953008;28;20015;-72
2023/06/18 06:57:45;;;;;;;14.02;9.80;;;22.80;93.20;;;;;;4952265;28;20102;-72
2023/06/18 07:00:11;;;;;;;12.90;10.13;;;22.90;92.80;;;;;;4953181;28;20045;-72
2023/06/18 07:02:37;;;;;;;12.88;10.18;;;23.00;92.60;;;;;;4955736;28;20023;-72
2023/06/18 07:05:04;;;;;;;13.25;9.98;;;23.00;92.20;;;;;;4956930;28;20102;-72
2023/06/18 07:07:29;;;;;;;13.75;11.00;;;23.20;91.90;;;;;;4952952;29;20525;-72
2023/06/18 07:09:55;;;;;;;13.68;10.43;;;23.20;91.70;;;;;;4952248;28;20027;-72
2023/06/18 07:12:21;;;;;;;17.25;11.68;;;23.30;91.50;;;;;;4950794;29;20099;-72
2023/06/18 07:14:46;;;;;;;15.90;11.60;;;23.30;91.20;;;;;;4956593;29;20656;-72
2023/06/18 07:17:12;;;;;;;16.55;11.10;;;23.40;91.00;;;;;;4956428;28;20032;-72
2023/06/18 07:19:37;;;;;;;17.08;12.10;;;23.50;90.70;;;;;;4950946;29;20555;-72
2023/06/18 07:22:03;;;;;;;15.57;11.82;;;23.50;90.50;;;;;;4947259;29;20050;-72
2023/06/18 07:24:29;;;;;;;16.83;11.63;;;23.50;90.10;;;;;;4956416;28;20023;-72
2023/06/18 07:26:55;;;;;;;17.83;12.30;;;23.50;89.80;;;;;;4950186;28;20450;-76
2023/06/18 07:29:21;;;;;;;18.20;12.35;;;23.50;89.70;;;;;;4956647;28;20024;-77
2023/06/18 07:31:46;;;;;;;18.92;11.90;;;23.60;89.50;;;;;;4956457;28;20016;-77
2023/06/18 07:34:12;;;;;;;15.82;12.63;;;23.60;89.40;;;;;;4946728;28;20108;-76
2023/06/18 07:36:37;;;;;;;15.20;11.50;;;23.60;89.50;;;;;;4956528;29;20062;-81
2023/06/18 07:39:03;;;;;;;17.08;12.00;;;23.60;89.50;;;;;;4957277;28;20028;-77
2023/06/18 07:41:29;;;;;;;14.32;12.30;;;23.70;89.90;;;;;;4944135;29;20050;-78
2023/06/18 07:43:54;;;;;;;14.82;11.88;;;23.70;89.50;;;;;;4952787;28;20051;-78
2023/06/18 07:46:20;;;;;;;18.52;12.70;;;23.70;88.80;;;;;;4956033;29;20106;-76
2023/06/18 07:48:46;;;;;;;17.95;12.80;;;23.70;88.40;;;;;;4956694;28;20023;-74
2023/06/18 07:51:11;;;;;;;26.45;12.52;;;23.80;88.20;;;;;;4956329;28;20028;-75
2023/06/18 07:53:39;;;;;;;16.45;12.35;;;23.80;88.10;;;;;;4955437;29;20023;-77
2023/06/18 07:56:05;;;;;;;19.00;12.68;;;23.90;87.90;;;;;;4958834;28;20023;-78
2023/06/18 07:58:31;;;;;;;22.40;12.27;;;23.90;87.50;;;;;;4956294;28;20458;-78
2023/06/18 08:00:56;;;;;;;17.95;13.77;;;23.90;87.20;;;;;;4954800;28;20039;-78
2023/06/18 08:03:22;;;;;;;15.73;11.68;;;23.90;86.80;;;;;;4956350;29;20029;-78
2023/06/18 08:05:48;;;;;;;20.55;12.20;;;23.90;86.50;;;;;;4958865;28;20098;-79
2023/06/18 08:08:15;;;;;;;16.30;12.27;;;23.90;86.60;;;;;;4950575;28;20468;-79
2023/06/18 08:10:40;;;;;;;18.45;12.43;;;24.00;86.80;;;;;;4951780;29;20031;-79
2023/06/18 08:13:06;;;;;;;18.17;12.60;;;24.00;86.70;;;;;;4942196;28;20438;-78
2023/06/18 08:15:32;;;;;;;18.13;13.20;;;24.10;86.50;;;;;;4956919;28;20102;-77
2023/06/18 08:17:57;;;;;;;18.90;13.43;;;24.10;86.40;;;;;;4955000;29;20027;-76
2023/06/18 08:20:23;;;;;;;21.38;12.00;;;24.10;86.10;;;;;;4943545;28;20056;-77
2023/06/18 08:22:48;;;;;;;22.08;13.10;;;24.20;85.80;;;;;;4942146;29;20020;-74
2023/06/18 08:25:14;;;;;;;20.65;12.60;;;24.30;85.50;;;;;;4945533;28;20106;-75
2023/06/18 08:27:39;;;;;;;17.60;12.68;;;24.40;85.10;;;;;;4953057;28;20031;-74
2023/06/18 08:30:06;;;;;;;18.70;11.75;;;24.50;85.00;;;;;;4953942;28;20027;-73
2023/06/18 08:32:31;;;;;;;18.17;13.27;;;24.60;85.00;;;;;;4948934;28;20024;-73
2023/06/18 08:34:57;;;;;;;20.83;13.18;;;24.70;84.30;;;;;;4949390;29;20485;-74
2023/06/18 08:37:23;;;;;;;16.92;11.98;;;24.80;83.80;;;;;;4951913;28;20039;-72
2023/06/18 08:39:48;;;;;;;18.95;12.18;;;24.90;83.90;;;;;;4955301;28;20027;-72
2023/06/18 08:42:20;;;;;;;20.50;11.75;;;25.00;83.60;;;;;;4949973;28;20055;-74
2023/06/18 08:44:46;;;;;;;17.58;12.02;;;25.10;83.80;;;;;;4952920;28;20034;-74
2023/06/18 08:47:12;;;;;;;15.32;12.40;;;25.20;83.70;;;;;;4951069;28;20527;-73
2023/06/18 08:49:41;;;;;;;17.45;12.07;;;25.20;83.20;;;;;;4953222;28;20118;-73
2023/06/18 08:52:08;;;;;;;14.07;11.75;;;25.30;83.30;;;;;;4950650;28;20030;-73
2023/06/18 08:54:36;;;;;;;17.48;10.85;;;25.40;83.20;;;;;;4954889;28;20035;-73
2023/06/18 08:57:16;;;;;;;18.60;12.68;;;25.50;83.00;;;;;;4950364;28;20041;-73
2023/06/18 08:59:43;;;;;;;16.55;11.88;;;25.60;82.30;;;;;;4947411;28;20093;-73
2023/06/18 09:02:12;;;;;;;15.80;11.35;;;25.60;82.30;;;;;;4955016;28;20126;-74
2023/06/18 09:04:39;;;;;;;13.95;10.75;;;25.70;82.30;;;;;;4939010;28;20027;-75
2023/06/18 09:07:05;;;;;;;15.77;11.07;;;25.80;81.80;;;;;;4951754;29;20106;-74
2023/06/18 09:09:31;;;;;;;14.85;11.77;;;25.90;81.40;;;;;;4953566;28;20367;-74
2023/06/18 09:11:57;;;;;;;17.38;12.07;;;26.00;81.30;;;;;;4947934;28;20036;-75
2023/06/18 09:14:24;;;;;;;13.32;11.52;;;26.10;80.80;;;;;;4944000;28;20028;-75
2023/06/18 09:16:51;;;;;;;21.65;11.77;;;26.20;80.20;;;;;;4954756;28;20020;-75
2023/06/18 09:19:18;;;;;;;17.92;11.88;;;26.30;80.30;;;;;;4946609;28;20019;-74
2023/06/18 09:21:44;;;;;;;17.13;10.52;;;26.30;80.10;;;;;;4955094;28;20031;-74
2023/06/18 09:24:15;;;;;;;17.20;11.77;;;26.40;80.40;;;;;;4938650;28;20054;-75
2023/06/18 09:26:41;;;;;;;16.73;11.93;;;26.40;79.90;;;;;;4950462;28;20061;-74
2023/06/18 09:29:09;;;;;;;16.40;11.45;;;26.40;80.00;;;;;;4946742;28;20503;-75
2023/06/18 09:31:37;;;;;;;15.48;10.57;;;26.40;79.60;;;;;;4947737;29;20050;-76
2023/06/18 09:34:13;;;;;;;14.27;10.82;;;26.40;79.20;;;;;;4946197;29;20035;-76
2023/06/18 09:36:40;;;;;;;14.48;10.88;;;26.50;79.00;;;;;;4949307;28;20050;-77
2023/06/18 09:39:15;;;;;;;13.43;9.70;;;26.50;79.00;;;;;;4953435;29;20023;-76
2023/06/18 09:41:41;;;;;;;11.05;9.23;;;26.50;78.60;;;;;;4947658;28;20101;-75
2023/06/18 09:44:07;;;;;;;9.45;8.45;;;26.50;77.90;;;;;;4954731;28;20027;-76
2023/06/18 09:46:44;;;;;;;9.40;8.40;;;26.50;77.50;;;;;;5057210;28;20442;-78
2023/06/18 09:49:15;;;;;;;12.05;9.20;;;26.50;77.20;;;;;;5050290;28;20018;-78
2023/06/18 09:51:41;;;;;;;12.27;8.68;;;26.50;77.00;;;;;;5035079;28;20061;-77
2023/06/18 09:54:08;;;;;;;11.80;9.93;;;26.50;76.90;;;;;;5033366;28;20036;-77
2023/06/18 09:56:34;;;;;;;11.93;9.85;;;26.50;77.20;;;;;;5033176;28;20028;-76
2023/06/18 09:59:03;;;;;;;13.75;10.00;;;26.50;77.30;;;;;;5040228;28;20030;-77
2023/06/18 10:01:46;;;;;;;14.82;9.88;;;26.40;78.10;;;;;;5042683;28;20033;-76
2023/06/18 10:04:12;;;;;;;18.88;11.05;;;26.30;77.50;;;;;;5046262;28;20043;-75
2023/06/18 10:06:39;;;;;;;12.30;9.57;;;26.20;77.80;;;;;;5028765;28;20037;-75
2023/06/18 10:09:06;;;;;;;13.80;10.55;;;26.10;78.10;;;;;;5041906;28;20017;-75
2023/06/18 10:11:32;;;;;;;13.50;9.20;;;26.00;78.10;;;;;;5044547;28;20472;-74
2023/06/18 10:14:06;;;;;;;13.55;9.35;;;25.90;78.20;;;;;;5044978;28;20028;-75
2023/06/18 10:16:34;;;;;;;9.73;8.40;;;25.80;78.00;;;;;;5046092;28;20029;-73
2023/06/18 10:19:02;;;;;;;10.40;8.52;;;25.80;78.40;;;;;;5048007;28;20033;-74
2023/06/18 10:21:28;;;;;;;9.00;8.10;;;25.70;78.70;;;;;;5034462;28;20021;-73
2023/06/18 10:24:15;;;;;;;10.68;7.97;;;25.70;79.00;;;;;;5037172;28;20032;-73
2023/06/18 10:26:41;;;;;;;13.23;7.85;;;25.60;79.00;;;;;;5042133;28;20056;-73
2023/06/18 10:29:09;;;;;;;10.02;8.18;;;25.50;79.40;;;;;;5044653;28;20036;-73
2023/06/18 10:31:36;;;;;;;14.48;8.80;;;25.40;79.50;;;;;;5048032;28;20033;-73
2023/06/18 10:34:02;;;;;;;10.88;8.93;;;25.40;79.70;;;;;;5042348;28;20025;-72
2023/06/18 10:36:28;;;;;;;14.77;8.95;;;25.40;80.00;;;;;;5046175;28;20029;-74
2023/06/18 10:38:56;;;;;;;10.43;8.88;;;25.40;80.70;;;;;;5041218;28;20018;-73
2023/06/18 10:41:22;;;;;;;9.80;8.27;;;25.30;81.90;;;;;;5031522;28;20034;-73
2023/06/18 10:43:52;;;;;;;9.75;7.57;;;25.30;81.50;;;;;;5046017;28;20021;-74
2023/06/18 10:46:18;;;;;;;9.38;7.45;;;25.40;81.80;;;;;;5046024;28;20388;-74
2023/06/18 10:49:16;;;;;;;12.23;8.10;;;25.40;82.10;;;;;;5033640;28;20022;-74
2023/06/18 10:52:05;;;;;;;11.90;8.07;;;25.60;82.30;;;;;;5032115;28;20044;-74
2023/06/18 10:54:31;;;;;;;9.95;7.60;;;25.60;82.20;;;;;;5034403;28;20128;-74
2023/06/18 10:56:58;;;;;;;11.73;7.38;;;25.70;82.20;;;;;;5038382;28;20036;-73
2023/06/18 10:59:56;;;;;;;8.52;7.03;;;25.90;82.50;;;;;;5034130;28;20040;-72
2023/06/18 11:02:32;;;;;;;10.20;7.90;;;26.10;82.40;;;;;;5026061;28;20074;-74
2023/06/18 11:04:58;;;;;;;8.27;7.35;;;26.20;81.90;;;;;;5034211;28;20026;-73
2023/06/18 11:07:25;;;;;;;9.27;7.85;;;26.30;81.60;;;;;;5030504;28;20022;-75
2023/06/18 11:09:58;;;;;;;8.43;7.57;;;26.40;81.30;;;;;;5034312;28;20361;-72
2023/06/18 11:12:36;;;;;;;8.38;6.88;;;26.50;81.10;;;;;;5021794;28;20719;-73
2023/06/18 11:15:06;;;;;;;9.93;7.05;;;26.60;81.00;;;;;;5027285;28;20112;-74
2023/06/18 11:17:35;;;;;;;8.98;7.07;;;26.70;80.60;;;;;;5028633;28;20049;-73
2023/06/18 11:20:01;;;;;;;9.25;7.28;;;26.70;80.00;;;;;;5028195;28;20580;-72
2023/06/18 11:22:31;;;;;;;10.63;6.85;;;26.70;80.00;;;;;;5028931;28;20072;-74
2023/06/18 11:25:00;;;;;;;8.05;6.82;;;26.60;80.00;;;;;;5026045;28;20018;-74
2023/06/18 11:27:27;;;;;;;8.80;6.85;;;26.60;79.70;;;;;;5024703;28;20037;-74
2023/06/18 11:29:57;;;;;;;8.27;6.78;;;26.60;79.80;;;;;;5028976;28;20025;-74
2023/06/18 11:32:24;;;;;;;10.77;6.80;;;26.50;80.00;;;;;;5033410;28;20043;-75
2023/06/18 11:34:50;;;;;;;9.05;6.75;;;26.50;80.00;;;;;;5032432;28;20108;-74
2023/06/18 11:37:16;;;;;;;7.65;6.85;;;26.50;80.00;;;;;;5029143;28;20022;-74
2023/06/18 11:39:42;;;;;;;8.40;6.53;;;26.50;79.70;;;;;;5017238;28;20036;-74
2023/06/18 11:42:17;;;;;;;7.03;6.22;;;26.40;79.60;;;;;;5020015;28;20021;-75
2023/06/18 11:44:51;;;;;;;9.48;6.47;;;26.40;80.10;;;;;;5026042;28;20053;-75
2023/06/18 11:47:17;;;;;;;7.38;6.28;;;26.50;80.20;;;;;;5031768;28;20029;-75
2023/06/18 11:49:44;;;;;;;9.52;6.85;;;26.50;80.30;;;;;;5024160;28;20435;-75
2023/06/18 11:52:12;;;;;;;9.40;7.30;;;26.60;80.40;;;;;;5021590;28;20366;-74
2023/06/18 11:54:39;;;;;;;10.90;7.15;;;26.60;80.00;;;;;;5024992;28;20029;-74
2023/06/18 11:57:06;;;;;;;8.95;7.65;;;26.70;80.20;;;;;;5021920;28;20419;-74
2023/06/18 11:59:33;;;;;;;9.23;7.32;;;26.80;80.00;;;;;;5031352;28;20025;-74
2023/06/18 12:02:11;;;;;;;10.63;7.32;;;26.90;79.90;;;;;;5027316;28;20104;-73
2023/06/18 12:04:36;;;;;;;8.52;7.25;;;27.00;79.40;;;;;;5025205;28;20049;-74
2023/06/18 12:07:02;;;;;;;8.57;7.53;;;27.00;79.00;;;;;;5025047;28;20099;-74
2023/06/18 12:09:35;;;;;;;10.25;7.50;;;27.10;79.00;;;;;;5028529;28;20033;-75
2023/06/18 12:12:09;;;;;;;8.75;7.50;;;27.10;78.80;;;;;;5023109;28;20495;-74
2023/06/18 12:14:58;;;;;;;10.23;8.80;;;27.20;79.00;;;;;;5026605;28;20096;-76
2023/06/18 12:17:50;;;;;;;10.18;7.38;;;27.20;79.00;;;;;;5017192;28;20088;-73
2023/06/18 12:20:19;;;;;;;11.50;8.18;;;27.20;78.70;;;;;;5026993;28;20032;-76
2023/06/18 12:22:46;;;;;;;10.50;7.82;;;27.20;78.70;;;;;;5018036;28;20375;-76
2023/06/18 12:25:12;;;;;;;12.23;8.30;;;27.20;78.70;;;;;;5025790;28;20261;-74
2023/06/18 12:27:40;;;;;;;8.30;6.45;;;27.20;78.50;;;;;;5024525;28;20551;-73
2023/06/18 12:30:07;;;;;;;10.10;7.35;;;27.30;78.10;;;;;;5027209;28;20018;-74
2023/06/18 12:32:33;;;;;;;9.07;7.10;;;27.30;78.00;;;;;;5016612;28;20049;-74